Time;durP1;ratioP1;P1;durP2;ratioP2;P2;SDS_P1;SDS_P2;PMS_P1;PMS_P2;Temp;Humidity;BMP_temperature;BMP_pressure;BME280_temperature;BME280_humidity;BME280_pressure;Samples;Min_cycle;Max_cycle;Signal;HPM_P1;HPM_P2
2021/10/04 00:02:09;;;;;;;0.30;0.27;;;14.00;99.90;;;;;;5013304;28;20451;-78
2021/10/04 00:04:36;;;;;;;0.70;0.70;;;14.00;99.90;;;;;;5013271;28;20449;-78
2021/10/04 00:07:04;;;;;;;1.30;0.37;;;14.00;99.90;;;;;;5013222;28;20452;-78
2021/10/04 00:09:31;;;;;;;0.30;0.20;;;13.90;99.90;;;;;;5013269;28;20455;-78
2021/10/04 00:11:57;;;;;;;0.30;0.30;;;13.90;99.90;;;;;;5013176;28;20475;-78
2021/10/04 00:14:26;;;;;;;0.30;0.30;;;13.90;99.90;;;;;;5012841;28;20478;-78
2021/10/04 00:16:54;;;;;;;0.40;0.30;;;13.90;99.90;;;;;;5013364;28;20459;-78
2021/10/04 00:19:21;;;;;;;0.40;0.30;;;13.90;99.90;;;;;;5013027;28;20444;-78
2021/10/04 00:21:48;;;;;;;0.30;0.20;;;13.90;99.90;;;;;;5013101;28;20840;-78
2021/10/04 00:24:14;;;;;;;0.30;0.30;;;13.90;99.90;;;;;;5013120;28;20455;-78
2021/10/04 00:26:41;;;;;;;0.30;0.20;;;13.90;99.90;;;;;;5013096;28;20452;-78
2021/10/04 00:29:09;;;;;;;0.47;0.30;;;13.90;99.90;;;;;;5013079;28;20462;-78
2021/10/04 00:31:37;;;;;;;0.80;0.27;;;13.90;99.90;;;;;;5012675;28;20975;-78
2021/10/04 00:34:04;;;;;;;0.57;0.30;;;13.90;99.90;;;;;;5013889;28;20494;-78
2021/10/04 00:36:31;;;;;;;0.40;0.30;;;13.90;99.90;;;;;;5016302;28;20440;-78
2021/10/04 00:38:58;;;;;;;0.30;0.30;;;13.80;99.90;;;;;;5016147;28;20820;-78
2021/10/04 00:41:24;;;;;;;0.30;0.30;;;13.80;99.90;;;;;;5016399;28;20478;-78
2021/10/04 00:43:51;;;;;;;0.40;0.30;;;13.80;99.90;;;;;;5016643;28;20451;-78
2021/10/04 00:46:18;;;;;;;0.53;0.30;;;13.80;99.90;;;;;;5016130;28;20991;-78
2021/10/04 00:48:47;;;;;;;0.30;0.20;;;13.80;99.90;;;;;;5016320;28;20452;-78
2021/10/04 00:51:15;;;;;;;0.40;0.30;;;13.80;99.90;;;;;;5015939;28;20531;-78
2021/10/04 00:53:42;;;;;;;0.30;0.30;;;13.80;99.90;;;;;;5015860;28;21020;-78
2021/10/04 00:56:09;;;;;;;0.30;0.20;;;13.70;99.90;;;;;;5015857;28;20443;-78
2021/10/04 00:58:36;;;;;;;0.60;0.30;;;13.80;99.90;;;;;;5015814;28;20459;-78
2021/10/04 01:01:03;;;;;;;0.30;0.20;;;13.80;99.90;;;;;;5016212;28;20834;-78
2021/10/04 01:03:30;;;;;;;0.30;0.30;;;13.80;99.90;;;;;;5015983;28;20448;-78
2021/10/04 01:05:59;;;;;;;0.40;0.30;;;13.70;99.90;;;;;;5016049;28;20459;-78
2021/10/04 01:08:26;;;;;;;0.50;0.50;;;13.70;99.90;;;;;;5015956;28;20450;-78
2021/10/04 01:10:53;;;;;;;1.67;0.30;;;13.70;99.90;;;;;;5015970;28;20487;-78
2021/10/04 01:13:22;;;;;;;0.30;0.20;;;13.70;99.90;;;;;;5015807;28;20452;-78
2021/10/04 01:15:49;;;;;;;0.30;0.30;;;13.70;99.90;;;;;;5015634;28;20951;-78
2021/10/04 01:18:16;;;;;;;0.30;0.30;;;13.70;99.90;;;;;;5015440;28;20931;-78
2021/10/04 01:20:44;;;;;;;0.30;0.30;;;13.70;99.90;;;;;;5015697;28;20467;-78
2021/10/04 01:23:11;;;;;;;0.60;0.30;;;13.60;99.90;;;;;;5015417;28;20436;-78
2021/10/04 01:25:38;;;;;;;0.30;0.20;;;13.70;99.90;;;;;;5015619;28;20456;-78
2021/10/04 01:28:05;;;;;;;0.30;0.20;;;13.60;99.90;;;;;;5015473;28;20823;-78
2021/10/04 01:30:33;;;;;;;0.30;0.30;;;13.60;99.90;;;;;;5015266;28;20480;-78
2021/10/04 01:33:00;;;;;;;0.30;0.30;;;13.60;99.90;;;;;;5015445;28;20451;-78
2021/10/04 01:35:27;;;;;;;0.30;0.27;;;13.60;99.90;;;;;;5015559;28;20502;-78
2021/10/04 01:37:55;;;;;;;0.40;0.30;;;13.60;99.90;;;;;;5015388;28;20454;-78
2021/10/04 01:40:22;;;;;;;0.30;0.30;;;13.50;99.90;;;;;;5015387;28;20482;-78
2021/10/04 01:42:50;;;;;;;0.30;0.30;;;13.60;99.90;;;;;;5015286;28;20448;-78
2021/10/04 01:45:19;;;;;;;0.40;0.30;;;13.60;99.90;;;;;;5014543;28;20834;-78
2021/10/04 01:47:46;;;;;;;0.37;0.30;;;13.50;99.90;;;;;;5015010;28;20439;-78
2021/10/04 01:50:15;;;;;;;0.30;0.30;;;13.50;99.90;;;;;;5015364;28;20467;-78
2021/10/04 01:52:42;;;;;;;0.30;0.30;;;13.50;99.90;;;;;;5014864;28;20954;-78
2021/10/04 01:55:12;;;;;;;0.30;0.30;;;13.50;99.90;;;;;;5014680;28;20495;-78
2021/10/04 01:57:39;;;;;;;0.30;0.30;;;13.50;99.90;;;;;;5014760;28;20805;-78
2021/10/04 02:00:10;;;;;;;0.30;0.30;;;13.50;99.90;;;;;;5014697;28;21009;-78
2021/10/04 02:02:36;;;;;;;0.30;0.30;;;13.50;99.90;;;;;;5015027;28;20439;-78
2021/10/04 02:05:04;;;;;;;0.30;0.30;;;13.50;99.90;;;;;;5014956;28;20455;-78
2021/10/04 02:07:31;;;;;;;0.40;0.30;;;13.50;99.90;;;;;;5014903;28;20467;-78
2021/10/04 02:09:58;;;;;;;0.30;0.30;;;13.50;99.90;;;;;;5014452;28;20463;-78
2021/10/04 02:12:26;;;;;;;0.30;0.30;;;13.40;99.90;;;;;;5014760;28;20455;-78
2021/10/04 02:14:53;;;;;;;0.30;0.30;;;13.40;99.90;;;;;;5014640;28;20484;-78
2021/10/04 02:17:20;;;;;;;0.40;0.30;;;13.30;99.90;;;;;;5014701;28;20451;-78
2021/10/04 02:19:47;;;;;;;0.40;0.30;;;13.30;99.90;;;;;;5014559;28;20462;-79
2021/10/04 02:22:14;;;;;;;0.30;0.30;;;13.20;99.90;;;;;;5014318;28;20981;-79
2021/10/04 02:24:40;;;;;;;0.30;0.30;;;13.10;99.90;;;;;;5014310;28;20935;-79
2021/10/04 02:27:07;;;;;;;0.30;0.20;;;13.10;99.90;;;;;;5014229;28;20448;-79
2021/10/04 02:29:35;;;;;;;0.30;0.30;;;13.00;99.90;;;;;;5014099;28;20819;-80
2021/10/04 02:32:02;;;;;;;0.33;0.30;;;13.00;99.90;;;;;;5014538;28;20470;-80
2021/10/04 02:34:29;;;;;;;0.30;0.20;;;12.90;99.90;;;;;;5014139;28;20499;-81
2021/10/04 02:36:55;;;;;;;0.30;0.20;;;12.90;99.90;;;;;;5014046;28;20943;-80
2021/10/04 02:39:22;;;;;;;0.30;0.23;;;12.90;99.90;;;;;;5014297;28;20459;-80
2021/10/04 02:41:49;;;;;;;0.30;0.20;;;12.90;99.90;;;;;;5013898;28;20463;-79
2021/10/04 02:44:16;;;;;;;0.70;0.30;;;12.90;99.90;;;;;;5014260;28;20440;-80
2021/10/04 02:46:44;;;;;;;0.40;0.40;;;12.80;99.90;;;;;;5013888;28;20483;-78
2021/10/04 02:49:11;;;;;;;0.30;0.20;;;12.90;99.90;;;;;;5014150;28;20458;-79
2021/10/04 02:51:38;;;;;;;0.30;0.30;;;12.80;99.90;;;;;;5013782;28;20464;-79
2021/10/04 02:54:05;;;;;;;0.30;0.20;;;12.80;99.90;;;;;;5013772;28;20842;-79
2021/10/04 02:56:32;;;;;;;0.30;0.30;;;12.80;99.90;;;;;;5013747;28;20931;-79
2021/10/04 02:58:59;;;;;;;0.30;0.30;;;12.80;99.90;;;;;;5013715;28;20445;-79
2021/10/04 03:01:26;;;;;;;0.30;0.20;;;12.70;99.90;;;;;;5014133;28;20467;-79
2021/10/04 03:03:54;;;;;;;0.30;0.20;;;12.70;99.90;;;;;;5014106;28;20455;-79
2021/10/04 03:06:21;;;;;;;0.30;0.20;;;12.70;99.90;;;;;;5014081;28;20455;-79
2021/10/04 03:08:47;;;;;;;0.30;0.30;;;12.60;99.90;;;;;;5013834;28;20459;-79
2021/10/04 03:11:14;;;;;;;0.40;0.40;;;12.60;99.90;;;;;;5013458;28;20833;-79
2021/10/04 03:13:41;;;;;;;0.40;0.30;;;12.60;99.90;;;;;;5013812;28;20444;-79
2021/10/04 03:16:08;;;;;;;0.30;0.20;;;12.60;99.90;;;;;;5013714;28;20475;-79
2021/10/04 03:18:34;;;;;;;0.30;0.30;;;12.70;99.90;;;;;;5013476;28;20436;-79
2021/10/04 03:21:03;;;;;;;0.30;0.30;;;12.60;99.90;;;;;;5013639;28;20467;-79
2021/10/04 03:23:29;;;;;;;0.40;0.30;;;12.60;99.90;;;;;;5013438;28;20440;-79
2021/10/04 03:25:56;;;;;;;0.30;0.20;;;12.60;99.90;;;;;;5013812;28;20455;-78
2021/10/04 03:28:23;;;;;;;0.30;0.30;;;12.60;99.90;;;;;;5013574;28;20455;-78
2021/10/04 03:30:50;;;;;;;0.30;0.30;;;12.60;99.90;;;;;;5013462;28;20475;-79
2021/10/04 03:33:17;;;;;;;0.40;0.30;;;12.60;99.90;;;;;;5013808;28;20451;-79
2021/10/04 03:35:44;;;;;;;0.30;0.20;;;12.60;99.90;;;;;;5013566;28;20557;-79
2021/10/04 03:38:12;;;;;;;0.30;0.20;;;12.60;99.90;;;;;;5013502;28;20805;-78
2021/10/04 03:40:39;;;;;;;0.30;0.20;;;12.50;99.90;;;;;;5013959;28;20814;-78
2021/10/04 03:43:07;;;;;;;0.30;0.20;;;12.50;99.90;;;;;;5013251;28;20442;-78
2021/10/04 03:45:34;;;;;;;0.30;0.30;;;12.50;99.90;;;;;;5013129;28;20883;-78
2021/10/04 03:48:00;;;;;;;0.40;0.40;;;12.50;99.90;;;;;;5013470;28;20450;-79
2021/10/04 03:50:27;;;;;;;0.40;0.30;;;12.50;99.90;;;;;;5013379;28;20484;-79
2021/10/04 03:52:54;;;;;;;1.03;0.30;;;12.40;99.90;;;;;;5013677;28;20451;-79
2021/10/04 03:55:22;;;;;;;0.30;0.30;;;12.40;99.90;;;;;;5013177;28;20502;-79
2021/10/04 03:57:49;;;;;;;0.30;0.20;;;12.40;99.90;;;;;;5013101;28;20514;-79
2021/10/04 04:00:19;;;;;;;0.30;0.30;;;12.40;99.90;;;;;;5013017;28;20971;-79
2021/10/04 04:02:46;;;;;;;0.30;0.30;;;12.30;99.90;;;;;;5013386;28;20478;-78
2021/10/04 04:05:14;;;;;;;0.30;0.20;;;12.30;99.90;;;;;;5013233;28;20947;-78
2021/10/04 04:07:41;;;;;;;0.40;0.30;;;12.30;99.90;;;;;;5013521;28;20452;-78
2021/10/04 04:10:09;;;;;;;0.33;0.27;;;12.30;99.90;;;;;;5015413;28;20463;-79
2021/10/04 04:12:39;;;;;;;0.30;0.20;;;12.30;99.90;;;;;;5017034;28;20444;-79
2021/10/04 04:15:07;;;;;;;0.30;0.30;;;12.30;99.90;;;;;;5016753;28;20824;-79
2021/10/04 04:17:34;;;;;;;0.30;0.30;;;12.30;99.90;;;;;;5016947;28;20450;-79
2021/10/04 04:20:00;;;;;;;0.30;0.30;;;12.30;99.90;;;;;;5016759;28;20470;-79
2021/10/04 04:22:27;;;;;;;0.30;0.30;;;12.30;99.90;;;;;;5017334;28;20455;-79
2021/10/04 04:24:55;;;;;;;0.30;0.30;;;12.30;99.90;;;;;;5016628;28;20444;-79
2021/10/04 04:27:22;;;;;;;0.50;0.30;;;12.30;99.90;;;;;;5016448;28;20817;-80
2021/10/04 04:29:51;;;;;;;0.30;0.30;;;12.30;99.90;;;;;;5016331;28;20971;-79
2021/10/04 04:32:18;;;;;;;0.30;0.20;;;12.30;99.90;;;;;;5016676;28;20451;-80
2021/10/04 04:34:44;;;;;;;0.30;0.30;;;12.30;99.90;;;;;;5016252;28;20482;-80
2021/10/04 04:37:11;;;;;;;0.30;0.30;;;12.30;99.90;;;;;;5016260;28;20962;-79
2021/10/04 04:39:38;;;;;;;0.30;0.20;;;12.30;99.90;;;;;;5016156;28;20942;-79
2021/10/04 04:42:06;;;;;;;0.30;0.20;;;12.20;99.90;;;;;;5016439;28;20450;-79
2021/10/04 04:44:33;;;;;;;0.30;0.30;;;12.20;99.90;;;;;;5016114;28;20486;-80
2021/10/04 04:47:01;;;;;;;0.40;0.40;;;12.20;99.90;;;;;;5015977;28;20573;-79
2021/10/04 04:49:28;;;;;;;0.30;0.20;;;12.30;99.90;;;;;;5016336;28;20451;-80
2021/10/04 04:51:56;;;;;;;0.30;0.20;;;12.30;99.90;;;;;;5016233;28;20498;-80
2021/10/04 04:54:24;;;;;;;0.30;0.30;;;12.30;99.90;;;;;;5015930;28;20436;-80
2021/10/04 04:56:54;;;;;;;0.80;0.30;;;12.30;99.90;;;;;;5015880;28;20947;-79
2021/10/04 04:59:20;;;;;;;0.40;0.30;;;12.30;99.90;;;;;;5016347;28;20535;-79
2021/10/04 05:01:47;;;;;;;0.53;0.30;;;12.30;99.90;;;;;;5015745;28;20474;-79
2021/10/04 05:04:15;;;;;;;0.30;0.20;;;12.20;99.90;;;;;;5016504;28;20542;-79
2021/10/04 05:06:42;;;;;;;0.30;0.20;;;12.30;99.90;;;;;;5015931;28;20455;-79
2021/10/04 05:09:09;;;;;;;0.30;0.27;;;12.30;99.90;;;;;;5015719;28;20444;-79
2021/10/04 05:11:36;;;;;;;0.40;0.30;;;12.30;99.90;;;;;;5015719;28;20480;-79
2021/10/04 05:14:03;;;;;;;0.60;0.60;;;12.30;99.90;;;;;;5015757;28;20794;-79
2021/10/04 05:16:30;;;;;;;3.23;0.40;;;12.30;99.90;;;;;;5015484;28;20494;-79
2021/10/04 05:18:57;;;;;;;0.57;0.30;;;12.30;99.90;;;;;;5015774;28;20448;-79
2021/10/04 05:21:25;;;;;;;0.30;0.20;;;12.30;99.90;;;;;;5014515;28;20471;-79
2021/10/04 05:23:52;;;;;;;0.40;0.30;;;12.30;99.90;;;;;;5015680;28;20474;-79
2021/10/04 05:26:19;;;;;;;0.30;0.20;;;12.30;99.90;;;;;;5015367;28;20435;-78
2021/10/04 05:28:46;;;;;;;0.30;0.20;;;12.40;99.90;;;;;;5015248;28;20951;-78
2021/10/04 05:31:13;;;;;;;0.30;0.30;;;12.40;99.90;;;;;;5015492;28;20470;-78
2021/10/04 05:33:39;;;;;;;0.30;0.20;;;12.40;99.90;;;;;;5015126;28;20459;-79
2021/10/04 05:36:06;;;;;;;0.67;0.30;;;12.40;99.90;;;;;;5015351;28;20480;-79
2021/10/04 05:38:35;;;;;;;0.40;0.30;;;12.50;99.90;;;;;;5015345;28;20443;-79
2021/10/04 05:41:01;;;;;;;0.30;0.30;;;12.50;99.90;;;;;;5014987;28;20558;-79
2021/10/04 05:43:28;;;;;;;0.30;0.30;;;12.50;99.90;;;;;;5015081;28;20440;-77
2021/10/04 05:45:55;;;;;;;0.30;0.27;;;12.50;99.90;;;;;;5015068;28;20480;-77
2021/10/04 05:48:22;;;;;;;0.30;0.30;;;12.50;99.90;;;;;;5015221;28;20445;-77
2021/10/04 05:50:50;;;;;;;0.30;0.30;;;12.50;99.90;;;;;;5015103;28;20471;-78
2021/10/04 05:53:16;;;;;;;0.30;0.30;;;12.50;99.90;;;;;;5015180;28;20436;-77
2021/10/04 05:55:45;;;;;;;0.40;0.30;;;12.40;99.90;;;;;;5014996;28;20485;-78
2021/10/04 05:58:12;;;;;;;0.40;0.30;;;12.50;99.90;;;;;;5015036;28;20946;-78
2021/10/04 06:00:39;;;;;;;0.40;0.30;;;12.40;99.90;;;;;;5014814;28;20471;-78
2021/10/04 06:03:06;;;;;;;0.50;0.40;;;12.40;99.90;;;;;;5014939;28;20444;-78
2021/10/04 06:05:33;;;;;;;0.30;0.30;;;12.40;99.90;;;;;;5015198;28;20459;-79
2021/10/04 06:08:01;;;;;;;0.30;0.23;;;12.30;99.90;;;;;;5014878;28;20461;-79
2021/10/04 06:10:28;;;;;;;0.30;0.30;;;12.30;99.90;;;;;;5014867;28;20455;-79
2021/10/04 06:12:56;;;;;;;0.37;0.30;;;12.30;99.90;;;;;;5014786;28;20539;-79
2021/10/04 06:15:23;;;;;;;0.50;0.50;;;12.20;99.90;;;;;;5014618;28;20494;-78
2021/10/04 06:17:51;;;;;;;0.30;0.30;;;12.20;99.90;;;;;;5014596;28;20487;-78
2021/10/04 06:20:18;;;;;;;0.30;0.30;;;12.20;99.90;;;;;;5014526;28;20482;-78
2021/10/04 06:22:45;;;;;;;0.30;0.30;;;12.20;99.90;;;;;;5014340;28;20929;-78
2021/10/04 06:25:14;;;;;;;0.47;0.30;;;12.20;99.90;;;;;;5014242;28;20943;-79
2021/10/04 06:27:41;;;;;;;0.30;0.30;;;12.10;99.90;;;;;;5014514;28;20498;-80
2021/10/04 06:30:10;;;;;;;0.30;0.30;;;12.10;99.90;;;;;;5014095;28;20839;-80
2021/10/04 06:32:38;;;;;;;0.50;0.30;;;12.20;99.90;;;;;;5014130;28;20458;-80
2021/10/04 06:35:06;;;;;;;0.30;0.20;;;12.10;99.90;;;;;;5014576;28;20431;-80
2021/10/04 06:37:33;;;;;;;0.40;0.27;;;12.20;99.90;;;;;;5014371;28;20436;-81
2021/10/04 06:40:00;;;;;;;0.40;0.30;;;12.20;99.90;;;;;;5014278;28;20478;-81
2021/10/04 06:42:27;;;;;;;0.30;0.20;;;12.30;99.90;;;;;;5014463;28;20440;-81
2021/10/04 06:44:54;;;;;;;0.40;0.30;;;12.20;99.90;;;;;;5013923;28;20420;-82
2021/10/04 06:47:22;;;;;;;0.30;0.20;;;12.20;99.90;;;;;;5013884;28;20470;-81
2021/10/04 06:49:49;;;;;;;0.30;0.30;;;12.20;99.90;;;;;;5014129;28;20443;-81
2021/10/04 06:52:16;;;;;;;0.30;0.30;;;12.20;99.90;;;;;;5013855;28;20816;-81
2021/10/04 06:54:43;;;;;;;0.30;0.30;;;12.20;99.90;;;;;;5013884;28;21001;-81
2021/10/04 06:57:10;;;;;;;2.83;0.40;;;12.20;99.90;;;;;;5013776;28;20483;-81
2021/10/04 06:59:37;;;;;;;0.40;0.30;;;12.20;99.90;;;;;;5014186;28;20446;-81
2021/10/04 07:02:04;;;;;;;0.40;0.40;;;12.20;99.90;;;;;;5013684;28;20951;-80
2021/10/04 07:04:32;;;;;;;0.90;0.40;;;12.20;99.90;;;;;;5013920;28;20455;-80
2021/10/04 07:06:59;;;;;;;0.30;0.30;;;12.20;99.90;;;;;;5013948;28;20450;-80
2021/10/04 07:09:26;;;;;;;0.80;0.40;;;12.20;99.90;;;;;;5013948;28;20470;-80
2021/10/04 07:11:53;;;;;;;0.30;0.27;;;12.20;99.90;;;;;;5013772;28;20464;-80
2021/10/04 07:14:19;;;;;;;2.30;0.40;;;12.20;99.90;;;;;;5013820;28;20454;-80
2021/10/04 07:16:46;;;;;;;0.40;0.30;;;12.20;99.90;;;;;;5013430;28;20474;-79
2021/10/04 07:19:13;;;;;;;0.30;0.30;;;12.20;99.90;;;;;;5013515;28;20947;-81
2021/10/04 07:21:41;;;;;;;0.30;0.20;;;12.30;99.90;;;;;;5013820;28;20478;-81
2021/10/04 07:24:09;;;;;;;0.50;0.50;;;12.30;99.90;;;;;;5013747;28;20443;-80
2021/10/04 07:26:36;;;;;;;0.30;0.20;;;12.30;99.90;;;;;;5013363;28;20947;-80
2021/10/04 07:29:04;;;;;;;0.40;0.30;;;12.30;99.90;;;;;;5013342;28;20947;-80
2021/10/04 07:31:31;;;;;;;0.60;0.27;;;12.30;99.90;;;;;;5013539;28;20576;-81
2021/10/04 07:33:58;;;;;;;0.30;0.30;;;12.30;99.90;;;;;;5013599;28;20447;-81
2021/10/04 07:36:25;;;;;;;0.50;0.40;;;12.30;99.90;;;;;;5013300;28;20501;-80
2021/10/04 07:38:53;;;;;;;0.30;0.30;;;12.30;99.90;;;;;;5013704;28;20451;-80
2021/10/04 07:41:20;;;;;;;0.40;0.30;;;12.30;99.90;;;;;;5013583;28;20482;-81
2021/10/04 07:43:47;;;;;;;0.30;0.30;;;12.40;99.90;;;;;;5013980;28;20451;-81
2021/10/04 07:46:13;;;;;;;0.80;0.40;;;12.40;99.90;;;;;;5017683;28;20880;-80
2021/10/04 07:48:40;;;;;;;0.40;0.30;;;12.40;99.90;;;;;;5018000;28;20478;-80
2021/10/04 07:51:08;;;;;;;0.40;0.30;;;12.40;99.90;;;;;;5017421;28;20467;-81
2021/10/04 07:53:38;;;;;;;0.30;0.30;;;12.40;99.90;;;;;;5017416;28;20482;-80
2021/10/04 07:56:06;;;;;;;0.43;0.30;;;12.40;99.90;;;;;;5017440;28;20483;-80
2021/10/04 07:58:33;;;;;;;0.60;0.60;;;12.40;99.90;;;;;;5017131;28;21038;-80
2021/10/04 08:00:59;;;;;;;0.30;0.27;;;12.40;99.90;;;;;;5017229;28;20497;-80
2021/10/04 08:03:26;;;;;;;0.30;0.30;;;12.40;99.90;;;;;;5017251;28;20451;-80
2021/10/04 08:05:53;;;;;;;0.30;0.20;;;12.40;99.90;;;;;;5017207;28;20451;-80
2021/10/04 08:08:20;;;;;;;0.50;0.47;;;12.40;99.90;;;;;;5016939;28;20954;-81
2021/10/04 08:10:47;;;;;;;0.30;0.27;;;12.40;99.90;;;;;;5017200;28;20467;-81
2021/10/04 08:13:15;;;;;;;0.30;0.30;;;12.40;99.90;;;;;;5016730;28;20463;-81
2021/10/04 08:15:42;;;;;;;0.30;0.30;;;12.40;99.90;;;;;;5016628;28;21018;-81
2021/10/04 08:18:09;;;;;;;0.30;0.20;;;12.40;99.90;;;;;;5016625;28;20939;-81
2021/10/04 08:20:35;;;;;;;0.30;0.30;;;12.40;99.90;;;;;;5016954;28;20511;-81
2021/10/04 08:23:03;;;;;;;0.30;0.20;;;12.40;99.90;;;;;;5016891;28;20447;-81
2021/10/04 08:25:29;;;;;;;0.30;0.30;;;12.30;99.90;;;;;;5016524;28;20443;-81
2021/10/04 08:27:56;;;;;;;0.60;0.40;;;12.30;99.90;;;;;;5016794;28;20444;-80
2021/10/04 08:30:24;;;;;;;0.30;0.30;;;12.20;99.90;;;;;;5016722;28;20456;-81
2021/10/04 08:32:51;;;;;;;0.30;0.30;;;12.20;99.90;;;;;;5016782;28;20436;-81
2021/10/04 08:35:18;;;;;;;0.30;0.20;;;12.20;99.90;;;;;;5016680;28;20441;-81
2021/10/04 08:37:45;;;;;;;0.30;0.30;;;12.30;99.90;;;;;;5016697;28;20483;-80
2021/10/04 08:40:15;;;;;;;0.30;0.30;;;12.20;99.90;;;;;;5016499;28;20510;-81
2021/10/04 08:42:42;;;;;;;0.40;0.40;;;12.30;99.90;;;;;;5016300;28;20907;-81
2021/10/04 08:45:10;;;;;;;0.50;0.50;;;12.30;99.90;;;;;;5016299;28;20431;-80
2021/10/04 08:47:40;;;;;;;0.30;0.30;;;12.30;99.90;;;;;;5016562;28;20451;-80
2021/10/04 08:50:09;;;;;;;0.40;0.30;;;12.30;99.90;;;;;;5016328;28;20846;-80
2021/10/04 08:52:36;;;;;;;0.30;0.30;;;12.20;99.90;;;;;;5016091;28;20454;-80
2021/10/04 08:55:04;;;;;;;0.30;0.30;;;12.20;99.90;;;;;;5016044;28;20439;-80
2021/10/04 08:57:31;;;;;;;0.30;0.20;;;12.30;99.90;;;;;;5015898;28;20995;-80
2021/10/04 08:59:57;;;;;;;0.30;0.30;;;12.30;99.90;;;;;;5016160;28;20475;-81
2021/10/04 09:02:26;;;;;;;0.57;0.40;;;12.30;99.90;;;;;;5016256;28;20416;-81
2021/10/04 09:05:16;;;;;;;0.30;0.30;;;12.30;99.90;;;;;;5016179;28;20443;-81
2021/10/04 09:07:45;;;;;;;0.30;0.20;;;12.30;99.90;;;;;;5016051;28;20475;-80
2021/10/04 09:10:13;;;;;;;0.77;0.77;;;12.30;99.90;;;;;;5015976;28;20467;-81
2021/10/04 09:12:46;;;;;;;0.33;0.30;;;12.30;99.90;;;;;;5015652;28;20915;-81
2021/10/04 09:15:33;;;;;;;0.60;0.40;;;12.40;99.90;;;;;;5015968;28;20416;-81
2021/10/04 09:18:01;;;;;;;0.40;0.30;;;12.40;99.90;;;;;;5015869;28;20480;-81
2021/10/04 09:20:49;;;;;;;0.30;0.30;;;12.40;99.90;;;;;;5015477;28;20475;-81
2021/10/04 09:23:33;;;;;;;0.40;0.30;;;12.40;99.90;;;;;;5015751;28;20444;-81
2021/10/04 09:26:02;;;;;;;0.40;0.30;;;12.40;99.90;;;;;;5015708;28;20440;-81
2021/10/04 09:28:30;;;;;;;0.30;0.30;;;12.40;99.90;;;;;;5016299;28;20439;-81
2021/10/04 09:31:16;;;;;;;1.27;0.50;;;12.50;99.90;;;;;;5015282;28;20471;-80
2021/10/04 09:33:58;;;;;;;0.30;0.30;;;12.50;99.90;;;;;;5015617;28;20490;-81
2021/10/04 09:36:26;;;;;;;0.73;0.30;;;12.50;99.90;;;;;;5015487;28;20468;-80
2021/10/04 09:39:09;;;;;;;0.63;0.30;;;12.50;99.90;;;;;;5016779;28;20451;-82
2021/10/04 09:41:36;;;;;;;0.40;0.30;;;12.50;99.90;;;;;;5015527;28;20846;-83
2021/10/04 09:44:04;;;;;;;0.30;0.30;;;12.50;99.90;;;;;;5015124;28;20938;-80
2021/10/04 09:46:33;;;;;;;0.50;0.30;;;12.40;99.90;;;;;;5015165;28;20571;-80
2021/10/04 09:49:03;;;;;;;0.30;0.30;;;12.40;99.90;;;;;;5015223;28;20440;-79
2021/10/04 09:51:31;;;;;;;0.30;0.30;;;12.40;99.90;;;;;;5015435;28;20518;-80
2021/10/04 09:54:09;;;;;;;0.40;0.30;;;12.50;99.90;;;;;;5015261;28;20793;-80
2021/10/04 09:56:36;;;;;;;0.50;0.30;;;12.50;99.90;;;;;;5015058;28;20482;-79
2021/10/04 09:59:03;;;;;;;0.47;0.47;;;12.30;99.90;;;;;;5014870;28;20416;-79
2021/10/04 10:01:30;;;;;;;0.30;0.30;;;12.40;99.90;;;;;;5015035;28;20475;-79
2021/10/04 10:03:57;;;;;;;0.30;0.20;;;12.40;99.90;;;;;;5014716;28;20538;-78
2021/10/04 10:06:24;;;;;;;7.10;1.17;;;12.50;99.90;;;;;;5014272;28;20918;-78
2021/10/04 10:08:54;;;;;;;0.40;0.30;;;12.40;99.90;;;;;;5015482;28;20794;-79
2021/10/04 10:11:23;;;;;;;0.30;0.30;;;12.40;99.90;;;;;;5014761;28;20471;-80
2021/10/04 10:13:50;;;;;;;0.30;0.30;;;12.50;99.90;;;;;;5015015;28;20442;-79
2021/10/04 10:16:21;;;;;;;0.80;0.60;;;12.50;99.90;;;;;;5014664;28;20442;-79
2021/10/04 10:18:53;;;;;;;0.80;0.80;;;12.50;99.90;;;;;;5014781;28;20519;-79
2021/10/04 10:21:22;;;;;;;0.70;0.40;;;12.60;99.90;;;;;;5014400;28;20837;-79
2021/10/04 10:23:52;;;;;;;0.30;0.23;;;12.70;99.90;;;;;;5014633;28;20450;-79
2021/10/04 10:26:31;;;;;;;0.30;0.30;;;12.80;99.90;;;;;;5014630;28;20435;-78
2021/10/04 10:29:24;;;;;;;0.30;0.20;;;12.80;99.90;;;;;;5014259;28;20919;-79
2021/10/04 10:32:14;;;;;;;0.30;0.30;;;12.80;99.90;;;;;;5014224;28;20487;-79
2021/10/04 10:34:53;;;;;;;0.30;0.30;;;12.80;99.90;;;;;;5014494;28;20438;-79
2021/10/04 10:37:25;;;;;;;0.30;0.20;;;12.80;99.90;;;;;;5014389;28;20474;-79
2021/10/04 10:39:56;;;;;;;0.30;0.20;;;12.80;99.90;;;;;;5014370;28;20438;-79
2021/10/04 10:42:27;;;;;;;0.30;0.20;;;12.70;99.90;;;;;;5014068;28;20920;-79
2021/10/04 10:45:13;;;;;;;0.30;0.30;;;12.70;99.90;;;;;;5014629;28;20420;-79
2021/10/04 10:47:57;;;;;;;0.30;0.30;;;12.70;99.90;;;;;;5014058;28;20424;-79
2021/10/04 10:50:39;;;;;;;0.40;0.30;;;12.70;99.90;;;;;;5014382;28;20468;-79
2021/10/04 10:53:09;;;;;;;0.30;0.20;;;12.70;99.90;;;;;;5014160;28;20439;-79
2021/10/04 10:55:40;;;;;;;0.30;0.30;;;12.70;99.90;;;;;;5014126;28;20432;-79
2021/10/04 10:58:12;;;;;;;0.30;0.20;;;12.70;99.90;;;;;;5014015;28;20479;-80
2021/10/04 11:00:42;;;;;;;0.53;0.30;;;12.70;99.90;;;;;;5014153;28;20491;-81
2021/10/04 11:03:12;;;;;;;0.50;0.30;;;12.70;99.90;;;;;;5014054;28;20431;-81
2021/10/04 11:05:58;;;;;;;0.40;0.33;;;12.80;99.90;;;;;;5013991;28;20436;-80
2021/10/04 11:08:59;;;;;;;0.30;0.20;;;12.80;99.90;;;;;;5014769;28;20439;-80
2021/10/04 11:11:31;;;;;;;0.30;0.30;;;12.80;99.90;;;;;;4992245;28;20475;-80
2021/10/04 11:14:14;;;;;;;0.30;0.30;;;12.90;99.90;;;;;;5009651;28;20451;-80
2021/10/04 11:16:47;;;;;;;0.30;0.30;;;13.00;99.90;;;;;;5014050;28;20823;-80
2021/10/04 11:19:35;;;;;;;0.30;0.30;;;13.00;99.90;;;;;;5012882;28;20497;-80
2021/10/04 11:22:03;;;;;;;0.30;0.20;;;12.90;99.90;;;;;;5013972;28;20424;-80
2021/10/04 11:24:30;;;;;;;0.30;0.23;;;12.90;99.90;;;;;;5013809;28;20775;-80
2021/10/04 11:27:02;;;;;;;0.30;0.30;;;12.90;99.90;;;;;;5013771;28;20431;-80
2021/10/04 11:29:29;;;;;;;0.30;0.20;;;12.90;99.90;;;;;;5014500;28;20494;-80
2021/10/04 11:31:56;;;;;;;0.30;0.20;;;12.90;99.90;;;;;;5013396;28;20455;-80
2021/10/04 11:34:24;;;;;;;0.30;0.20;;;12.90;99.90;;;;;;5013448;28;20412;-80
2021/10/04 11:36:52;;;;;;;0.30;0.20;;;12.90;99.90;;;;;;5013364;28;20466;-80
2021/10/04 11:39:22;;;;;;;0.40;0.30;;;13.00;99.90;;;;;;5013847;28;20428;-80
2021/10/04 11:41:51;;;;;;;0.70;0.50;;;13.00;99.90;;;;;;5013763;28;20470;-79
2021/10/04 11:44:21;;;;;;;0.40;0.40;;;13.00;99.90;;;;;;5013251;28;20440;-79
2021/10/04 11:46:50;;;;;;;0.40;0.40;;;13.00;99.90;;;;;;5013066;28;20979;-80
2021/10/04 11:49:19;;;;;;;0.40;0.30;;;13.00;99.90;;;;;;5013608;28;20443;-80
2021/10/04 11:51:49;;;;;;;0.30;0.20;;;13.00;99.90;;;;;;5013503;28;20477;-80
2021/10/04 11:54:31;;;;;;;0.30;0.30;;;13.00;99.90;;;;;;5013597;28;20450;-79
2021/10/04 11:56:59;;;;;;;1.03;0.30;;;12.90;99.90;;;;;;5013392;28;20473;-81
2021/10/04 11:59:28;;;;;;;0.60;0.60;;;12.90;99.90;;;;;;5013461;28;20436;-80
2021/10/04 12:01:55;;;;;;;0.40;0.30;;;12.90;99.90;;;;;;5013384;28;20913;-81
2021/10/04 12:04:23;;;;;;;0.40;0.40;;;12.90;99.90;;;;;;5013385;28;20439;-81
2021/10/04 12:06:50;;;;;;;0.30;0.20;;;13.00;99.90;;;;;;5013446;28;20436;-80
2021/10/04 12:09:18;;;;;;;0.30;0.30;;;13.00;99.90;;;;;;5013373;28;20442;-81
2021/10/04 12:11:53;;;;;;;0.40;0.30;;;12.90;99.90;;;;;;5013241;28;20520;-80
2021/10/04 12:14:21;;;;;;;0.50;0.50;;;12.90;99.90;;;;;;5013534;28;20435;-81
2021/10/04 12:16:51;;;;;;;0.30;0.30;;;12.90;99.90;;;;;;5013798;28;20452;-80
2021/10/04 12:19:18;;;;;;;0.40;0.30;;;12.90;99.90;;;;;;5013906;28;20785;-81
2021/10/04 12:21:47;;;;;;;0.30;0.20;;;13.00;99.90;;;;;;5012856;28;20471;-80
2021/10/04 12:24:18;;;;;;;0.30;0.20;;;12.90;99.90;;;;;;5013992;28;20432;-81
2021/10/04 12:26:50;;;;;;;0.30;0.20;;;13.00;99.90;;;;;;5013185;28;20490;-81
2021/10/04 12:29:33;;;;;;;0.30;0.30;;;13.00;99.90;;;;;;5013188;28;20435;-81
2021/10/04 12:32:23;;;;;;;0.30;0.20;;;13.00;99.90;;;;;;5016897;28;20471;-81
2021/10/04 12:35:07;;;;;;;0.40;0.30;;;13.10;99.90;;;;;;5016528;28;20427;-80
2021/10/04 12:37:36;;;;;;;0.30;0.20;;;13.20;99.90;;;;;;5016261;28;20475;-80
2021/10/04 12:40:22;;;;;;;0.30;0.20;;;13.30;99.90;;;;;;5016552;28;20486;-80
2021/10/04 12:42:49;;;;;;;0.30;0.20;;;13.30;99.90;;;;;;5016347;28;20902;-81
2021/10/04 12:45:20;;;;;;;0.30;0.20;;;13.40;99.90;;;;;;5016002;28;20818;-81
2021/10/04 12:48:00;;;;;;;0.30;0.30;;;13.40;99.90;;;;;;5016238;28;20884;-80
2021/10/04 12:50:29;;;;;;;0.30;0.30;;;13.40;99.90;;;;;;5016366;28;20473;-80
2021/10/04 12:53:15;;;;;;;0.30;0.20;;;13.50;99.90;;;;;;5016358;28;20450;-79
2021/10/04 12:56:03;;;;;;;0.30;0.30;;;13.70;99.90;;;;;;5016334;28;20432;-80
2021/10/04 12:58:33;;;;;;;0.30;0.30;;;13.70;99.90;;;;;;5012424;28;20491;-80